Time;durP1;ratioP1;P1;durP2;ratioP2;P2;SDS_P1;SDS_P2;PMS_P1;PMS_P2;Temp;Humidity;BMP_temperature;BMP_pressure;BME280_temperature;BME280_humidity;BME280_pressure;Samples;Min_cycle;Max_cycle;Signal;HPM_P1;HPM_P2
2023/02/14 00:01:12;;;;;;;;;;;;;;;0.57;89.54;101279.19;5118429;28;19911;-73
2023/02/14 00:03:38;;;;;;;;;;;;;;;0.55;89.89;101283.69;5116976;28;19912;-71
2023/02/14 00:06:06;;;;;;;;;;;;;;;0.50;89.78;101294.44;5116671;28;19934;-71
2023/02/14 00:08:32;;;;;;;;;;;;;;;0.48;90.04;101290.22;5116178;28;19912;-71
2023/02/14 00:10:57;;;;;;;;;;;;;;;0.48;90.39;101296.28;5116284;28;19922;-71
2023/02/14 00:13:22;;;;;;;;;;;;;;;0.52;90.04;101299.59;5116158;28;19918;-70
2023/02/14 00:15:47;;;;;;;;;;;;;;;0.58;89.90;101301.91;5136988;28;19910;-72
2023/02/14 00:18:13;;;;;;;;;;;;;;;0.58;89.90;101313.22;5114681;28;19916;-70
2023/02/14 00:20:38;;;;;;;;;;;;;;;0.61;89.50;101312.19;5119460;28;19919;-70
2023/02/14 00:23:03;;;;;;;;;;;;;;;0.61;90.22;101312.19;5117384;28;19912;-72
2023/02/14 00:25:29;;;;;;;;;;;;;;;0.60;89.96;101316.59;5118030;28;19919;-72
2023/02/14 00:27:55;;;;;;;;;;;;;;;0.64;89.81;101319.88;5116530;28;19916;-71
2023/02/14 00:30:20;;;;;;;;;;;;;;;0.72;89.59;101328.16;5115943;28;20002;-70
2023/02/14 00:32:45;;;;;;;;;;;;;;;0.78;88.97;101334.84;5115765;28;20385;-71
2023/02/14 00:35:11;;;;;;;;;;;;;;;0.83;88.88;101344.13;5115050;28;19956;-72
2023/02/14 00:37:36;;;;;;;;;;;;;;;0.88;89.31;101350.00;5114990;28;20410;-71
2023/02/14 00:40:02;;;;;;;;;;;;;;;0.92;88.92;101351.50;5115158;28;20010;-71
2023/02/14 00:42:52;;;;;;;;;;;;;;;0.95;88.63;101352.25;5115178;28;19991;-72
2023/02/14 00:45:19;;;;;;;;;;;;;;;0.98;88.70;101366.03;5114806;28;19924;-72
2023/02/14 00:47:44;;;;;;;;;;;;;;;0.98;88.18;101367.81;5114979;28;20255;-72
2023/02/14 00:50:09;;;;;;;;;;;;;;;1.02;88.57;101369.34;5114623;28;19919;-71
2023/02/14 00:52:35;;;;;;;;;;;;;;;0.99;88.51;101374.75;5114439;28;19911;-72
2023/02/14 00:55:00;;;;;;;;;;;;;;;0.99;88.22;101380.00;5114535;28;19915;-73
2023/02/14 00:57:26;;;;;;;;;;;;;;;1.02;88.34;101387.69;5114531;28;20255;-74
2023/02/14 00:59:51;;;;;;;;;;;;;;;1.04;88.48;101384.03;5114763;28;19965;-71
2023/02/14 01:02:16;;;;;;;;;;;;;;;1.05;88.19;101390.13;5114600;28;19912;-72
2023/02/14 01:04:41;;;;;;;;;;;;;;;1.04;88.41;101393.69;5114350;28;20270;-71
2023/02/14 01:07:07;;;;;;;;;;;;;;;1.01;88.00;101393.88;5114177;28;19916;-71
2023/02/14 01:09:32;;;;;;;;;;;;;;;1.02;88.21;101409.53;5114288;28;20386;-70
2023/02/14 01:11:57;;;;;;;;;;;;;;;0.98;88.26;101408.00;5114052;28;20518;-71
2023/02/14 01:14:23;;;;;;;;;;;;;;;0.99;88.44;101406.22;5114308;28;19912;-71
2023/02/14 01:16:48;;;;;;;;;;;;;;;0.97;88.53;101414.19;5114251;28;19911;-73
2023/02/14 01:19:13;;;;;;;;;;;;;;;0.94;88.58;101424.84;5114058;28;19912;-72
2023/02/14 01:21:40;;;;;;;;;;;;;;;0.89;88.86;101422.47;5114163;28;19912;-73
2023/02/14 01:24:06;;;;;;;;;;;;;;;0.88;88.93;101436.53;5113862;28;19912;-72
2023/02/14 01:26:32;;;;;;;;;;;;;;;0.88;88.96;101441.78;5113566;28;20057;-72
2023/02/14 01:28:58;;;;;;;;;;;;;;;0.85;89.02;101444.53;5114015;28;20271;-72
2023/02/14 01:31:25;;;;;;;;;;;;;;;0.88;88.98;101447.00;5113668;28;20021;-71
2023/02/14 01:33:51;;;;;;;;;;;;;;;0.93;89.00;101452.00;5113694;28;20354;-70
2023/02/14 01:36:25;;;;;;;;;;;;;;;0.95;88.38;101457.16;5113288;28;19912;-71
2023/02/14 01:38:51;;;;;;;;;;;;;;;0.98;88.34;101457.84;5113474;28;20385;-72
2023/02/14 01:41:17;;;;;;;;;;;;;;;0.99;88.07;101448.19;5113710;28;20354;-71
2023/02/14 01:43:51;;;;;;;;;;;;;;;1.00;87.86;101460.38;5114675;28;19968;-71
2023/02/14 01:46:16;;;;;;;;;;;;;;;1.02;87.91;101469.00;5115781;28;19916;-72
2023/02/14 01:48:42;;;;;;;;;;;;;;;1.04;87.41;101482.88;5115767;28;19964;-71
2023/02/14 01:51:07;;;;;;;;;;;;;;;1.07;87.60;101485.34;5114316;28;19939;-72
2023/02/14 01:53:32;;;;;;;;;;;;;;;1.06;87.45;101492.34;5115175;28;19912;-70
2023/02/14 01:56:01;;;;;;;;;;;;;;;1.06;87.35;101496.75;5119341;28;19918;-71
2023/02/14 01:58:28;;;;;;;;;;;;;;;-142.41;100.00;64449.00;5118556;28;19935;-70
2023/02/14 02:00:56;;;;;;;;;;;;;;;-142.41;100.00;64449.00;5119475;28;19911;-71
2023/02/14 02:03:25;;;;;;;;;;;;;;;-142.41;100.00;64449.00;5118465;28;20380;-69
2023/02/14 02:05:52;;;;;;;;;;;;;;;-142.41;100.00;64449.00;5119630;28;19912;-70
2023/02/14 02:08:18;;;;;;;;;;;;;;;-142.41;100.00;64449.00;5117721;28;19981;-72
2023/02/14 02:10:43;;;;;;;;;;;;;;;-142.41;100.00;64449.00;5113297;28;20359;-71
2023/02/14 02:13:14;;;;;;;;;;;;;;;-142.41;100.00;64449.00;5113210;28;20424;-71
2023/02/14 02:16:01;;;;;;;;;;;;;;;-142.41;100.00;64449.00;5113305;28;20335;-70
2023/02/14 02:18:26;;;;;;;;;;;;;;;-142.41;100.00;64449.00;5112990;28;19956;-71
2023/02/14 02:21:12;;;;;;;;;;;;;;;-142.41;100.00;64449.00;5113156;28;19911;-71
2023/02/14 02:23:53;;;;;;;;;;;;;;;-142.41;100.00;64449.00;5095199;28;19912;-71
2023/02/14 02:26:18;;;;;;;;;;;;;;;-142.41;100.00;64449.00;5113459;28;19920;-71
2023/02/14 02:29:05;;;;;;;;;;;;;;;-142.41;100.00;64449.00;5113198;28;19916;-71
2023/02/14 02:31:30;;;;;;;;;;;;;;;-142.41;100.00;64449.00;5113657;28;19915;-72
2023/02/14 02:34:14;;;;;;;;;;;;;;;-142.41;100.00;64449.00;5113419;28;19956;-71
2023/02/14 02:36:47;;;;;;;;;;;;;;;-142.41;100.00;64449.00;5113640;28;19934;-71
2023/02/14 02:39:21;;;;;;;;;;;;;;;-142.41;100.00;64449.00;5119343;28;19912;-71
2023/02/14 02:41:52;;;;;;;;;;;;;;;-142.41;100.00;64449.00;5122743;28;19912;-72
2023/02/14 02:44:28;;;;;;;;;;;;;;;-142.41;100.00;64449.00;5122011;28;19923;-70
2023/02/14 02:47:05;;;;;;;;;;;;;;;-142.41;100.00;64449.00;5122098;28;20382;-70
2023/02/14 02:55:17;;;;;;;;;;;;;;;-142.41;100.00;64449.00;5117676;28;19972;-72
2023/02/14 02:57:44;;;;;;;;;;;;;;;-142.41;100.00;64449.00;5117449;28;19934;-72
2023/02/14 03:00:11;;;;;;;;;;;;;;;-142.41;100.00;64449.00;5116513;28;19918;-70
2023/02/14 03:05:27;;;;;;;;;;;;;;;-142.41;100.00;64449.00;5116937;28;19911;-70
2023/02/14 03:07:52;;;;;;;;;;;;;;;-142.41;100.00;64449.00;5116609;28;19911;-71
2023/02/14 03:10:23;;;;;;;;;;;;;;;-142.41;100.00;64449.00;5116322;28;19969;-71
2023/02/14 03:12:48;;;;;;;;;;;;;;;-142.41;100.00;64449.00;5116344;28;19928;-71
2023/02/14 03:15:16;;;;;;;;;;;;;;;-142.41;100.00;64449.00;5116782;28;19990;-70
2023/02/14 03:17:41;;;;;;;;;;;;;;;-142.41;100.00;64449.00;5116387;28;19911;-70
2023/02/14 03:20:15;;;;;;;;;;;;;;;-142.41;100.00;64449.00;5116489;28;19911;-69
2023/02/14 03:22:44;;;;;;;;;;;;;;;-142.41;100.00;64449.00;5116625;28;19912;-67
2023/02/14 03:25:15;;;;;;;;;;;;;;;-142.41;100.00;64449.00;5116291;28;20387;-68
2023/02/14 03:27:45;;;;;;;;;;;;;;;-142.41;100.00;64449.00;5116114;28;20316;-71
2023/02/14 03:30:10;;;;;;;;;;;;;;;-142.41;100.00;64449.00;5116286;28;19985;-72
2023/02/14 03:32:35;;;;;;;;;;;;;;;-142.41;100.00;64449.00;5116171;28;20359;-71
2023/02/14 03:35:03;;;;;;;;;;;;;;;-142.41;100.00;64449.00;5116069;28;19912;-69
2023/02/14 03:37:32;;;;;;;;;;;;;;;-142.41;100.00;64449.00;5115907;28;19916;-71
2023/02/14 03:40:24;;;;;;;;;;;;;;;-142.41;100.00;64449.00;5115950;28;19955;-69
2023/02/14 03:42:52;;;;;;;;;;;;;;;-142.41;100.00;64449.00;5111051;28;19912;-69
2023/02/14 03:45:37;;;;;;;;;;;;;;;-142.41;100.00;64449.00;5115968;28;19923;-70
2023/02/14 03:48:07;;;;;;;;;;;;;;;-142.41;100.00;64449.00;5115564;28;19911;-69
2023/02/14 03:50:34;;;;;;;;;;;;;;;-142.41;100.00;64449.00;5097662;28;19924;-71
2023/02/14 03:53:00;;;;;;;;;;;;;;;-142.41;100.00;64449.00;5117071;28;19919;-72
2023/02/14 03:55:29;;;;;;;;;;;;;;;-142.41;100.00;64449.00;5115878;28;20407;-73
2023/02/14 03:57:58;;;;;;;;;;;;;;;-142.41;100.00;64449.00;5115877;28;19919;-73
2023/02/14 04:00:24;;;;;;;;;;;;;;;-142.41;100.00;64449.00;5115241;28;19912;-70
2023/02/14 04:02:54;;;;;;;;;;;;;;;-142.41;100.00;64449.00;5115445;28;19919;-71
2023/02/14 04:05:22;;;;;;;;;;;;;;;-142.41;100.00;64449.00;5115568;28;19947;-69
2023/02/14 04:07:49;;;;;;;;;;;;;;;-142.41;100.00;64449.00;5118901;28;20416;-70
2023/02/14 04:10:15;;;;;;;;;;;;;;;-142.41;100.00;64449.00;5115970;28;19912;-70
2023/02/14 04:12:40;;;;;;;;;;;;;;;-142.41;100.00;64449.00;5114992;28;19965;-73
2023/02/14 04:15:06;;;;;;;;;;;;;;;-142.41;100.00;64449.00;5115497;28;19918;-71
2023/02/14 04:20:15;;;;;;;;;;;;;;;-142.41;100.00;64449.00;5115487;28;19943;-73
2023/02/14 04:22:50;;;;;;;;;;;;;;;-142.41;100.00;64449.00;5095323;28;19947;-76
2023/02/14 04:25:16;;;;;;;;;;;;;;;-142.41;100.00;64449.00;5114100;28;19957;-77
2023/02/14 04:27:42;;;;;;;;;;;;;;;-142.41;100.00;64449.00;5096323;28;19920;-76
2023/02/14 04:30:08;;;;;;;;;;;;;;;-142.41;100.00;64449.00;5116785;28;19920;-76
2023/02/14 04:32:34;;;;;;;;;;;;;;;-142.41;100.00;64449.00;5119858;28;20003;-76
2023/02/14 04:34:59;;;;;;;;;;;;;;;-142.41;100.00;64449.00;5116727;28;19916;-79
2023/02/14 04:37:25;;;;;;;;;;;;;;;-142.41;100.00;64449.00;5115442;28;19911;-78
2023/02/14 04:39:50;;;;;;;;;;;;;;;-142.41;100.00;64449.00;5114885;28;19911;-72
2023/02/14 04:42:15;;;;;;;;;;;;;;;-142.41;100.00;64449.00;5114299;28;19916;-74
2023/02/14 04:44:41;;;;;;;;;;;;;;;-142.41;100.00;64449.00;5114855;28;20060;-75
2023/02/14 04:47:31;;;;;;;;;;;;;;;-142.41;100.00;64449.00;5115026;28;19969;-71
2023/02/14 04:49:56;;;;;;;;;;;;;;;-142.41;100.00;64449.00;5115342;28;19916;-70
2023/02/14 04:52:22;;;;;;;;;;;;;;;-142.41;100.00;64449.00;5114978;28;19912;-70
2023/02/14 04:54:47;;;;;;;;;;;;;;;-142.41;100.00;64449.00;5096834;28;19916;-71
2023/02/14 04:57:13;;;;;;;;;;;;;;;-142.41;100.00;64449.00;5114379;28;19926;-71
2023/02/14 04:59:38;;;;;;;;;;;;;;;-142.41;100.00;64449.00;5114291;28;19912;-72
2023/02/14 05:02:03;;;;;;;;;;;;;;;-142.41;100.00;64449.00;5114227;28;19916;-71
2023/02/14 05:04:29;;;;;;;;;;;;;;;-142.41;100.00;64449.00;5113978;28;19918;-71
2023/02/14 05:06:54;;;;;;;;;;;;;;;-142.41;100.00;64449.00;5095620;28;19911;-72
2023/02/14 05:09:20;;;;;;;;;;;;;;;-142.41;100.00;64449.00;5114091;28;19912;-72
2023/02/14 05:11:45;;;;;;;;;;;;;;;-142.41;100.00;64449.00;5113550;28;19911;-73
2023/02/14 05:14:10;;;;;;;;;;;;;;;-142.41;100.00;64449.00;5115303;28;19959;-72
2023/02/14 05:16:37;;;;;;;;;;;;;;;-142.41;100.00;64449.00;5096887;28;19919;-71
2023/02/14 05:19:02;;;;;;;;;;;;;;;-142.41;100.00;64449.00;5096728;28;20276;-70
2023/02/14 05:21:31;;;;;;;;;;;;;;;-142.41;100.00;64449.00;5113876;28;19916;-70
2023/02/14 05:23:57;;;;;;;;;;;;;;;-142.41;100.00;64449.00;5113675;28;19918;-73
2023/02/14 05:26:24;;;;;;;;;;;;;;;-142.41;100.00;64449.00;5097528;28;19916;-73
2023/02/14 05:28:52;;;;;;;;;;;;;;;-142.41;100.00;64449.00;5113352;28;20018;-73
2023/02/14 05:31:17;;;;;;;;;;;;;;;-142.41;100.00;64449.00;5113703;28;19922;-72
2023/02/14 05:33:42;;;;;;;;;;;;;;;-142.41;100.00;64449.00;5113784;28;19912;-72
2023/02/14 05:36:08;;;;;;;;;;;;;;;-142.41;100.00;64449.00;5114104;28;19916;-72
2023/02/14 05:38:34;;;;;;;;;;;;;;;-142.41;100.00;64449.00;5113711;28;20015;-71
2023/02/14 05:41:00;;;;;;;;;;;;;;;-142.41;100.00;64449.00;5113581;28;20006;-72
2023/02/14 05:43:29;;;;;;;;;;;;;;;-142.41;100.00;64449.00;5112995;28;19957;-72
2023/02/14 05:45:57;;;;;;;;;;;;;;;-142.41;100.00;64449.00;5095758;28;19956;-71
2023/02/14 05:48:23;;;;;;;;;;;;;;;-142.41;100.00;64449.00;5114205;28;20363;-72
2023/02/14 05:50:48;;;;;;;;;;;;;;;-142.41;100.00;64449.00;5113203;28;19918;-72
2023/02/14 05:53:14;;;;;;;;;;;;;;;-142.41;100.00;64449.00;5113774;28;20359;-73
2023/02/14 05:55:40;;;;;;;;;;;;;;;-142.41;100.00;64449.00;5113270;28;20006;-71
2023/02/14 05:58:05;;;;;;;;;;;;;;;-142.41;100.00;64449.00;5113440;28;19919;-72
2023/02/14 06:00:31;;;;;;;;;;;;;;;-142.41;100.00;64449.00;5113279;28;19912;-72
2023/02/14 06:02:56;;;;;;;;;;;;;;;-142.41;100.00;64449.00;5112801;28;19912;-72
2023/02/14 06:05:22;;;;;;;;;;;;;;;-142.41;100.00;64449.00;5112498;28;19911;-75
2023/02/14 06:07:49;;;;;;;;;;;;;;;-142.41;100.00;64449.00;5077679;28;19918;-72
2023/02/14 06:10:18;;;;;;;;;;;;;;;-142.41;100.00;64449.00;5113156;28;19919;-71
2023/02/14 06:12:43;;;;;;;;;;;;;;;-142.41;100.00;64449.00;5113167;28;19912;-74
2023/02/14 06:15:09;;;;;;;;;;;;;;;-142.41;100.00;64449.00;5113099;28;20390;-71
2023/02/14 06:17:36;;;;;;;;;;;;;;;-142.41;100.00;64449.00;5110997;28;19919;-73
2023/02/14 06:20:02;;;;;;;;;;;;;;;-142.41;100.00;64449.00;5112785;28;20007;-70
2023/02/14 06:22:28;;;;;;;;;;;;;;;-142.41;100.00;64449.00;5112850;28;19920;-70
2023/02/14 06:24:53;;;;;;;;;;;;;;;-142.41;100.00;64449.00;5113035;28;19918;-71
2023/02/14 06:27:18;;;;;;;;;;;;;;;-142.41;100.00;64449.00;5112935;28;19920;-71
2023/02/14 06:29:47;;;;;;;;;;;;;;;-142.41;100.00;64449.00;5112767;28;19922;-71
2023/02/14 06:32:12;;;;;;;;;;;;;;;-142.41;100.00;64449.00;5112768;28;19912;-71
2023/02/14 06:34:39;;;;;;;;;;;;;;;-142.41;100.00;64449.00;5112766;28;19961;-71
2023/02/14 06:37:05;;;;;;;;;;;;;;;-142.41;100.00;64449.00;5112771;28;19947;-71
2023/02/14 06:39:30;;;;;;;;;;;;;;;-142.41;100.00;64449.00;5112770;28;19966;-72
2023/02/14 06:41:55;;;;;;;;;;;;;;;-142.41;100.00;64449.00;5112556;28;19912;-71
2023/02/14 06:44:21;;;;;;;;;;;;;;;-142.41;100.00;64449.00;5112881;28;19935;-72
2023/02/14 06:46:46;;;;;;;;;;;;;;;-142.41;100.00;64449.00;5112723;28;19957;-71
2023/02/14 06:49:13;;;;;;;;;;;;;;;-142.41;100.00;64449.00;5112477;28;19915;-71
2023/02/14 06:51:39;;;;;;;;;;;;;;;-142.41;100.00;64449.00;5112867;28;20308;-73
2023/02/14 06:54:04;;;;;;;;;;;;;;;-142.41;100.00;64449.00;5112798;28;20373;-70
2023/02/14 06:56:29;;;;;;;;;;;;;;;-142.41;100.00;64449.00;5112382;28;19915;-70
2023/02/14 06:58:55;;;;;;;;;;;;;;;-142.41;100.00;64449.00;5112614;28;20355;-71
2023/02/14 07:01:20;;;;;;;;;;;;;;;-142.41;100.00;64449.00;5112635;28;19911;-70
2023/02/14 07:03:45;;;;;;;;;;;;;;;-142.41;100.00;64449.00;5112477;28;19918;-77
2023/02/14 07:06:10;;;;;;;;;;;;;;;-142.41;100.00;64449.00;5112617;28;19911;-72
2023/02/14 07:08:36;;;;;;;;;;;;;;;-142.41;100.00;64449.00;5112912;28;19959;-72
2023/02/14 07:11:01;;;;;;;;;;;;;;;-142.41;100.00;64449.00;5112528;28;20301;-73
2023/02/14 07:13:27;;;;;;;;;;;;;;;-142.41;100.00;64449.00;5094382;28;19912;-71
2023/02/14 07:15:52;;;;;;;;;;;;;;;-142.41;100.00;64449.00;5112387;28;20375;-70
2023/02/14 07:18:17;;;;;;;;;;;;;;;-142.41;100.00;64449.00;5093966;28;20037;-71
2023/02/14 07:20:43;;;;;;;;;;;;;;;-142.41;100.00;64449.00;5112047;28;19912;-70
2023/02/14 07:23:09;;;;;;;;;;;;;;;-142.41;100.00;64449.00;5112753;28;19958;-71
2023/02/14 07:25:36;;;;;;;;;;;;;;;-142.41;100.00;64449.00;5111941;28;19916;-72
2023/02/14 07:28:10;;;;;;;;;;;;;;;-142.41;100.00;64449.00;5112115;28;20277;-71
2023/02/14 07:30:36;;;;;;;;;;;;;;;-142.41;100.00;64449.00;5112206;28;19916;-69
2023/02/14 07:33:01;;;;;;;;;;;;;;;-142.41;100.00;64449.00;5112104;28;19965;-71
2023/02/14 07:35:26;;;;;;;;;;;;;;;-142.41;100.00;64449.00;5115896;28;20249;-71
2023/02/14 07:37:52;;;;;;;;;;;;;;;-142.41;100.00;64449.00;5116204;28;19964;-70
2023/02/14 07:40:18;;;;;;;;;;;;;;;-142.41;100.00;64449.00;5115658;28;19995;-71
2023/02/14 07:42:44;;;;;;;;;;;;;;;-142.41;100.00;64449.00;5115911;28;19918;-72
2023/02/14 07:45:09;;;;;;;;;;;;;;;-142.41;100.00;64449.00;5115791;28;19923;-72
2023/02/14 07:47:35;;;;;;;;;;;;;;;-142.41;100.00;64449.00;5120827;27;20007;-71
2023/02/14 07:50:01;;;;;;;;;;;;;;;-142.41;100.00;64449.00;5128178;27;19919;-71
2023/02/14 07:52:26;;;;;;;;;;;;;;;-142.41;100.00;64449.00;5136489;27;19917;-71
2023/02/14 07:54:52;;;;;;;;;;;;;;;-142.41;100.00;64449.00;5136586;27;19911;-71
2023/02/14 07:57:17;;;;;;;;;;;;;;;-142.41;100.00;64449.00;5140136;27;19967;-72
2023/02/14 07:59:42;;;;;;;;;;;;;;;-142.41;100.00;64449.00;5140022;27;20025;-71
2023/02/14 08:02:10;;;;;;;;;;;;;;;-142.41;100.00;64449.00;5138221;27;19922;-73
2023/02/14 08:04:35;;;;;;;;;;;;;;;-142.41;100.00;64449.00;5136616;27;19934;-72
2023/02/14 08:07:00;;;;;;;;;;;;;;;-142.41;100.00;64449.00;5136220;27;20358;-75
2023/02/14 08:09:26;;;;;;;;;;;;;;;-142.41;100.00;64449.00;5135913;27;20382;-72
2023/02/14 08:14:36;;;;;;;;;;;;;;;-142.41;100.00;64449.00;5135730;27;19915;-72
2023/02/14 08:17:02;;;;;;;;;;;;;;;-142.41;100.00;64449.00;5135581;27;19911;-70
2023/02/14 08:19:27;;;;;;;;;;;;;;;-142.41;100.00;64449.00;5135786;27;19911;-71
2023/02/14 08:21:53;;;;;;;;;;;;;;;-142.41;100.00;64449.00;5135906;27;20026;-71
2023/02/14 08:24:18;;;;;;;;;;;;;;;-142.41;100.00;64449.00;5135557;27;20344;-71
2023/02/14 08:26:46;;;;;;;;;;;;;;;-142.41;100.00;64449.00;5135457;27;20318;-74
2023/02/14 08:29:11;;;;;;;;;;;;;;;-142.41;100.00;64449.00;5135139;27;19966;-75
2023/02/14 08:31:36;;;;;;;;;;;;;;;-142.41;100.00;64449.00;5136420;27;19915;-74
2023/02/14 08:34:05;;;;;;;;;;;;;;;-142.41;100.00;64449.00;5136041;27;19918;-74
2023/02/14 08:36:30;;;;;;;;;;;;;;;-142.41;100.00;64449.00;5136764;27;19950;-74
2023/02/14 08:38:56;;;;;;;;;;;;;;;-142.41;100.00;64449.00;5135861;27;19918;-74
2023/02/14 08:41:22;;;;;;;;;;;;;;;-142.41;100.00;64449.00;5136277;27;19979;-72
2023/02/14 08:43:47;;;;;;;;;;;;;;;-142.41;100.00;64449.00;5135941;27;20010;-69
2023/02/14 08:46:13;;;;;;;;;;;;;;;-142.41;100.00;64449.00;5135897;27;19912;-71
2023/02/14 08:48:39;;;;;;;;;;;;;;;-142.41;100.00;64449.00;5117920;27;19915;-70
2023/02/14 08:51:06;;;;;;;;;;;;;;;-142.41;100.00;64449.00;5135066;27;20422;-71
2023/02/14 08:53:31;;;;;;;;;;;;;;;-142.41;100.00;64449.00;5135003;27;19934;-70
2023/02/14 08:56:00;;;;;;;;;;;;;;;-142.41;100.00;64449.00;5134714;27;20358;-71
2023/02/14 08:58:26;;;;;;;;;;;;;;;-142.41;100.00;64449.00;5134713;27;19917;-70
2023/02/14 09:00:51;;;;;;;;;;;;;;;-142.41;100.00;64449.00;5135180;27;20002;-70
2023/02/14 09:03:16;;;;;;;;;;;;;;;-142.41;100.00;64449.00;5134891;27;20309;-70
2023/02/14 09:05:42;;;;;;;;;;;;;;;-142.41;100.00;64449.00;5134624;27;19946;-72
2023/02/14 09:08:07;;;;;;;;;;;;;;;-142.41;100.00;64449.00;5134717;27;20084;-71
2023/02/14 09:10:32;;;;;;;;;;;;;;;-142.41;100.00;64449.00;5134600;27;19912;-71
2023/02/14 09:12:58;;;;;;;;;;;;;;;-142.41;100.00;64449.00;5134169;27;19915;-70
2023/02/14 09:15:23;;;;;;;;;;;;;;;-142.41;100.00;64449.00;5131512;27;19968;-71
2023/02/14 09:17:51;;;;;;;;;;;;;;;-142.41;100.00;64449.00;5134765;27;19980;-73
2023/02/14 09:20:17;;;;;;;;;;;;;;;-142.41;100.00;64449.00;5099114;27;19933;-70
2023/02/14 09:22:42;;;;;;;;;;;;;;;-142.41;100.00;64449.00;5134410;27;20018;-72
2023/02/14 09:25:08;;;;;;;;;;;;;;;-142.41;100.00;64449.00;5134432;27;20010;-70
2023/02/14 09:27:33;;;;;;;;;;;;;;;-142.41;100.00;64449.00;5134994;27;20048;-71
2023/02/14 09:29:58;;;;;;;;;;;;;;;-142.41;100.00;64449.00;5136303;27;19915;-68
2023/02/14 09:32:25;;;;;;;;;;;;;;;-142.41;100.00;64449.00;5141406;27;20014;-67
2023/02/14 09:37:37;;;;;;;;;;;;;;;-142.41;100.00;64449.00;5135643;27;19918;-70
2023/02/14 09:40:03;;;;;;;;;;;;;;;-142.41;100.00;64449.00;5134051;27;20282;-71
2023/02/14 09:42:50;;;;;;;;;;;;;;;-142.41;100.00;64449.00;5133777;27;19998;-72
2023/02/14 09:45:17;;;;;;;;;;;;;;;-142.41;100.00;64449.00;5134867;27;19994;-71
2023/02/14 09:47:50;;;;;;;;;;;;;;;-142.41;100.00;64449.00;5115323;27;19912;-71
2023/02/14 09:50:23;;;;;;;;;;;;;;;-142.41;100.00;64449.00;5133694;27;20425;-72
2023/02/14 09:53:27;;;;;;;;;;;;;;;-142.41;100.00;64449.00;5134059;27;19984;-72
2023/02/14 09:56:12;;;;;;;;;;;;;;;-142.41;100.00;64449.00;5133566;27;19954;-74
2023/02/14 09:58:40;;;;;;;;;;;;;;;-142.41;100.00;64449.00;5133617;27;20002;-75
2023/02/14 10:01:05;;;;;;;;;;;;;;;-142.41;100.00;64449.00;5133635;27;19940;-72
2023/02/14 10:03:47;;;;;;;;;;;;;;;-142.41;100.00;64449.00;5133648;27;19912;-72
2023/02/14 10:06:12;;;;;;;;;;;;;;;-142.41;100.00;64449.00;5133638;27;20019;-74
2023/02/14 10:08:38;;;;;;;;;;;;;;;-142.41;100.00;64449.00;5114895;27;20354;-74
2023/02/14 10:11:05;;;;;;;;;;;;;;;-142.41;100.00;64449.00;5114389;27;19935;-73
2023/02/14 10:13:37;;;;;;;;;;;;;;;-142.41;100.00;64449.00;5133168;27;19918;-73
2023/02/14 10:16:15;;;;;;;;;;;;;;;-142.41;100.00;64449.00;5115354;27;19994;-73
2023/02/14 10:18:56;;;;;;;;;;;;;;;-142.41;100.00;64449.00;5134150;27;19912;-72
2023/02/14 10:21:24;;;;;;;;;;;;;;;-142.41;100.00;64449.00;5133984;27;19919;-73
2023/02/14 10:23:52;;;;;;;;;;;;;;;-142.41;100.00;64449.00;5133561;27;19911;-72
2023/02/14 10:26:28;;;;;;;;;;;;;;;-142.41;100.00;64449.00;5133293;27;19915;-73
2023/02/14 10:28:55;;;;;;;;;;;;;;;-142.41;100.00;64449.00;5133357;28;20358;-73
2023/02/14 10:31:24;;;;;;;;;;;;;;;-142.41;100.00;64449.00;5133743;28;19918;-71
2023/02/14 10:33:55;;;;;;;;;;;;;;;-142.41;100.00;64449.00;5133339;28;19918;-73
2023/02/14 10:36:29;;;;;;;;;;;;;;;-142.41;100.00;64449.00;5133202;28;19911;-71
2023/02/14 10:39:03;;;;;;;;;;;;;;;-142.41;100.00;64449.00;5133438;28;19911;-73
2023/02/14 10:41:47;;;;;;;;;;;;;;;-142.41;100.00;64449.00;5133235;28;20041;-73
2023/02/14 10:44:21;;;;;;;;;;;;;;;-142.41;100.00;64449.00;5133324;28;19996;-74
2023/02/14 10:46:49;;;;;;;;;;;;;;;-142.41;100.00;64449.00;5133506;28;19934;-72
2023/02/14 10:49:15;;;;;;;;;;;;;;;-142.41;100.00;64449.00;5135477;28;19915;-72
2023/02/14 10:51:53;;;;;;;;;;;;;;;-142.41;100.00;64449.00;5137388;28;19912;-72
2023/02/14 10:54:22;;;;;;;;;;;;;;;-142.41;100.00;64449.00;5137834;28;19920;-74
2023/02/14 10:56:57;;;;;;;;;;;;;;;-142.41;100.00;64449.00;5140752;28;19912;-71
2023/02/14 10:59:27;;;;;;;;;;;;;;;-142.41;100.00;64449.00;5137388;28;19912;-78
2023/02/14 11:01:54;;;;;;;;;;;;;;;-142.41;100.00;64449.00;5133525;28;19979;-73
2023/02/14 11:04:22;;;;;;;;;;;;;;;-142.41;100.00;64449.00;5133906;28;19916;-75
2023/02/14 11:06:48;;;;;;;;;;;;;;;-142.41;100.00;64449.00;5133224;28;19911;-77
2023/02/14 11:09:13;;;;;;;;;;;;;;;-142.41;100.00;64449.00;5134880;27;20026;-77
2023/02/14 11:12:08;;;;;;;;;;;;;;;-142.41;100.00;64449.00;5118651;27;20375;-73
2023/02/14 11:14:35;;;;;;;;;;;;;;;-142.41;100.00;64449.00;5118996;27;19937;-75
2023/02/14 11:17:20;;;;;;;;;;;;;;;-142.41;100.00;64449.00;5136969;27;20278;-75
2023/02/14 11:20:08;;;;;;;;;;;;;;;-142.41;100.00;64449.00;5122882;27;19964;-76
2023/02/14 11:22:34;;;;;;;;;;;;;;;-142.41;100.00;64449.00;5135508;27;20002;-74
2023/02/14 11:25:18;;;;;;;;;;;;;;;-142.41;100.00;64449.00;5136941;27;19958;-74
2023/02/14 11:27:48;;;;;;;;;;;;;;;-142.41;100.00;64449.00;5136549;27;20540;-76
2023/02/14 11:30:34;;;;;;;;;;;;;;;-142.41;100.00;64449.00;5136354;27;19968;-75
2023/02/14 11:32:59;;;;;;;;;;;;;;;-142.41;100.00;64449.00;5136263;27;19959;-75
2023/02/14 11:35:32;;;;;;;;;;;;;;;-142.41;100.00;64449.00;5136449;27;20397;-75
2023/02/14 11:37:58;;;;;;;;;;;;;;;-142.41;100.00;64449.00;5137734;27;19911;-74
2023/02/14 11:40:28;;;;;;;;;;;;;;;-142.41;100.00;64449.00;5138590;27;19911;-74
2023/02/14 11:42:56;;;;;;;;;;;;;;;-142.41;100.00;64449.00;5136768;27;19918;-73
2023/02/14 11:45:28;;;;;;;;;;;;;;;-142.41;100.00;64449.00;5136310;27;20376;-74
2023/02/14 11:48:15;;;;;;;;;;;;;;;-142.41;100.00;64449.00;5136366;27;19912;-74
2023/02/14 11:50:41;;;;;;;;;;;;;;;-142.41;100.00;64449.00;5118083;27;19912;-75
2023/02/14 11:53:21;;;;;;;;;;;;;;;-142.41;100.00;64449.00;5135909;27;19911;-77
2023/02/14 11:55:54;;;;;;;;;;;;;;;-142.41;100.00;64449.00;5117379;27;19960;-76
2023/02/14 11:58:58;;;;;;;;;;;;;;;-142.41;100.00;64449.00;5099613;27;20007;-76
2023/02/14 12:01:27;;;;;;;;;;;;;;;-142.41;100.00;64449.00;5018973;28;19920;-75
2023/02/14 12:04:06;;;;;;;;;;;;;;;-142.41;100.00;64449.00;5035374;28;19913;-74
2023/02/14 12:06:34;;;;;;;;;;;;;;;-142.41;100.00;64449.00;5066024;27;19954;-73
2023/02/14 12:09:18;;;;;;;;;;;;;;;-142.41;100.00;64449.00;5136722;27;20386;-71
2023/02/14 12:11:53;;;;;;;;;;;;;;;-142.41;100.00;64449.00;5120038;27;19947;-73
2023/02/14 12:14:20;;;;;;;;;;;;;;;-142.41;100.00;64449.00;5137582;27;19915;-73
2023/02/14 12:16:50;;;;;;;;;;;;;;;-142.41;100.00;64449.00;5136644;27;19956;-73
2023/02/14 12:19:17;;;;;;;;;;;;;;;-142.41;100.00;64449.00;5137095;27;19918;-73
2023/02/14 12:22:02;;;;;;;;;;;;;;;-142.41;100.00;64449.00;5135945;27;20282;-74
2023/02/14 12:24:35;;;;;;;;;;;;;;;-142.41;100.00;64449.00;5134806;27;19911;-72
2023/02/14 12:27:21;;;;;;;;;;;;;;;-142.41;100.00;64449.00;5135309;27;20365;-74
2023/02/14 12:29:49;;;;;;;;;;;;;;;-142.41;100.00;64449.00;5086421;27;20027;-75
2023/02/14 12:32:22;;;;;;;;;;;;;;;-142.41;100.00;64449.00;5135764;27;19968;-72
2023/02/14 12:34:48;;;;;;;;;;;;;;;-142.41;100.00;64449.00;5136244;27;19922;-73
2023/02/14 12:37:16;;;;;;;;;;;;;;;-142.41;100.00;64449.00;5135689;27;20384;-74
2023/02/14 12:40:00;;;;;;;;;;;;;;;-142.41;100.00;64449.00;5134266;27;19958;-72
2023/02/14 12:42:25;;;;;;;;;;;;;;;-142.41;100.00;64449.00;5134737;27;19911;-73
2023/02/14 12:44:57;;;;;;;;;;;;;;;-142.41;100.00;64449.00;5134242;27;19918;-72